Time;durP1;ratioP1;P1;durP2;ratioP2;P2;SDS_P1;SDS_P2;PMS_P1;PMS_P2;Temp;Humidity;BMP_temperature;BMP_pressure;BME280_temperature;BME280_humidity;BME280_pressure;Samples;Min_cycle;Max_cycle;Signal;HPM_P1;HPM_P2
2021/09/12 00:00:18;;;;;;;2.60;1.85;;;18.30;99.90;;;;;;4859377;29;20487;-91
2021/09/12 00:02:43;;;;;;;4.88;2.03;;;18.30;99.90;;;;;;4860833;29;20045;-91
2021/09/12 00:05:09;;;;;;;2.97;1.80;;;18.30;99.90;;;;;;4858261;29;20825;-91
2021/09/12 00:07:35;;;;;;;4.38;1.70;;;18.30;99.90;;;;;;4859246;29;20178;-90
2021/09/12 00:10:01;;;;;;;5.03;2.03;;;18.20;99.90;;;;;;4862676;29;20187;-91
2021/09/12 00:12:27;;;;;;;2.60;1.88;;;18.20;99.90;;;;;;4859756;29;20462;-91
2021/09/12 00:14:53;;;;;;;3.88;2.17;;;18.20;99.90;;;;;;4859093;29;20037;-91
2021/09/12 00:17:18;;;;;;;3.88;1.92;;;18.10;99.90;;;;;;4860496;29;20030;-91
2021/09/12 00:19:44;;;;;;;5.70;2.13;;;18.00;99.90;;;;;;4861798;29;20430;-91
2021/09/12 00:22:10;;;;;;;4.47;1.90;;;18.00;99.90;;;;;;4860059;29;20029;-90
2021/09/12 00:24:35;;;;;;;3.58;1.88;;;18.00;99.90;;;;;;4861465;29;20040;-91
2021/09/12 00:27:01;;;;;;;4.30;1.88;;;18.00;99.90;;;;;;4860577;29;20066;-91
2021/09/12 00:29:27;;;;;;;6.95;1.90;;;18.00;99.90;;;;;;4858207;29;20309;-91
2021/09/12 00:31:53;;;;;;;3.50;1.80;;;18.00;99.90;;;;;;4858917;29;20026;-91
2021/09/12 00:34:19;;;;;;;2.80;1.75;;;18.00;99.90;;;;;;4858580;29;20032;-91
2021/09/12 00:36:45;;;;;;;2.85;1.77;;;17.90;99.90;;;;;;4860982;29;20040;-91
2021/09/12 00:39:14;;;;;;;3.03;1.80;;;17.90;99.90;;;;;;4859085;29;20044;-91
2021/09/12 00:41:42;;;;;;;4.45;1.98;;;17.90;99.90;;;;;;4859410;29;20498;-91
2021/09/12 00:44:10;;;;;;;3.50;2.10;;;17.80;99.90;;;;;;4859096;29;20026;-91
2021/09/12 00:46:40;;;;;;;2.88;1.98;;;17.80;99.90;;;;;;4857892;29;20025;-91
2021/09/12 00:49:06;;;;;;;3.28;1.83;;;17.80;99.90;;;;;;4858387;29;20175;-91
2021/09/12 00:51:35;;;;;;;3.05;1.60;;;17.80;99.90;;;;;;4858973;29;20058;-91
2021/09/12 00:54:04;;;;;;;3.28;2.03;;;17.80;99.90;;;;;;4859263;29;20373;-91
2021/09/12 00:56:32;;;;;;;3.08;1.88;;;17.70;99.90;;;;;;4860864;29;20030;-90
2021/09/12 00:58:59;;;;;;;3.78;1.95;;;17.60;99.90;;;;;;4860596;29;20571;-90
2021/09/12 01:01:26;;;;;;;5.10;2.00;;;17.60;99.90;;;;;;4858073;29;20074;-90
2021/09/12 01:03:55;;;;;;;4.35;2.20;;;17.60;99.90;;;;;;4857755;29;20511;-90
2021/09/12 01:06:21;;;;;;;3.17;1.90;;;17.60;99.90;;;;;;4856811;29;20033;-90
2021/09/12 01:08:48;;;;;;;3.58;2.33;;;17.60;99.90;;;;;;4858612;29;20346;-90
2021/09/12 01:11:14;;;;;;;3.55;2.20;;;17.60;99.90;;;;;;4859879;29;20056;-91
2021/09/12 01:13:42;;;;;;;4.00;1.95;;;17.60;99.90;;;;;;4858016;29;20069;-91
2021/09/12 01:16:18;;;;;;;5.93;2.38;;;17.60;99.90;;;;;;4857896;29;20074;-90
2021/09/12 01:18:45;;;;;;;3.80;1.92;;;17.60;99.90;;;;;;4859930;29;20030;-90
2021/09/12 01:21:17;;;;;;;3.50;2.10;;;17.50;99.90;;;;;;4860731;29;20116;-90
2021/09/12 01:23:43;;;;;;;2.90;2.10;;;17.40;99.90;;;;;;4860224;29;20104;-90
2021/09/12 01:26:09;;;;;;;6.25;2.50;;;17.40;99.90;;;;;;4857606;29;20165;-90
2021/09/12 01:28:38;;;;;;;3.85;2.00;;;17.40;99.90;;;;;;4856457;29;20117;-90
2021/09/12 01:31:04;;;;;;;3.78;1.98;;;17.40;99.90;;;;;;4856296;29;20132;-90
2021/09/12 01:33:36;;;;;;;3.13;2.00;;;17.40;99.90;;;;;;4857635;29;20128;-90
2021/09/12 01:36:02;;;;;;;3.22;2.00;;;17.40;99.90;;;;;;4857671;29;20026;-90
2021/09/12 01:38:28;;;;;;;3.55;2.05;;;17.40;99.90;;;;;;4857535;29;20040;-90
2021/09/12 01:40:53;;;;;;;3.20;2.10;;;17.40;99.90;;;;;;4856304;29;20235;-90
2021/09/12 01:43:20;;;;;;;3.95;1.92;;;17.30;99.90;;;;;;4856246;29;20037;-89
2021/09/12 01:45:46;;;;;;;4.32;2.40;;;17.30;99.90;;;;;;4858696;29;20030;-90
2021/09/12 01:48:12;;;;;;;4.22;2.30;;;17.30;99.90;;;;;;4856241;29;20034;-90
2021/09/12 01:50:38;;;;;;;3.55;2.20;;;17.30;99.90;;;;;;4857326;29;20033;-90
2021/09/12 01:53:04;;;;;;;3.30;2.15;;;17.30;99.90;;;;;;4856196;29;20034;-92
2021/09/12 01:55:30;;;;;;;4.95;2.30;;;17.20;99.90;;;;;;4857344;29;20030;-90
2021/09/12 01:57:55;;;;;;;3.75;2.15;;;17.20;99.90;;;;;;4856240;29;20049;-90
2021/09/12 02:00:21;;;;;;;3.75;2.05;;;17.20;99.90;;;;;;4857522;29;20041;-89
2021/09/12 02:02:47;;;;;;;4.15;2.42;;;17.20;99.90;;;;;;4857338;29;20077;-89
2021/09/12 02:05:23;;;;;;;3.25;2.08;;;17.20;99.90;;;;;;4858213;29;20029;-90
2021/09/12 02:07:48;;;;;;;5.65;2.50;;;17.20;99.90;;;;;;4858671;29;20025;-90
2021/09/12 02:10:14;;;;;;;7.47;2.20;;;17.20;99.90;;;;;;4857204;29;20061;-90
2021/09/12 02:12:40;;;;;;;3.90;2.20;;;17.20;99.90;;;;;;4856922;29;20058;-89
2021/09/12 02:15:06;;;;;;;3.50;2.30;;;17.20;99.90;;;;;;4854793;29;20419;-90
2021/09/12 02:17:32;;;;;;;6.28;2.33;;;17.20;99.90;;;;;;4857883;29;20056;-90
2021/09/12 02:19:58;;;;;;;4.05;2.38;;;17.10;99.90;;;;;;4858892;29;20444;-90
2021/09/12 02:22:23;;;;;;;5.38;2.72;;;17.10;99.90;;;;;;4855187;29;20491;-89
2021/09/12 02:24:49;;;;;;;4.78;2.47;;;17.10;99.90;;;;;;4857333;29;20557;-90
2021/09/12 02:27:19;;;;;;;7.82;2.40;;;17.10;99.90;;;;;;4844176;29;20082;-89
2021/09/12 02:29:44;;;;;;;3.90;2.20;;;17.00;99.90;;;;;;4857108;29;20037;-90
2021/09/12 02:32:10;;;;;;;4.28;2.22;;;17.10;99.90;;;;;;4856988;29;20038;-90
2021/09/12 02:34:36;;;;;;;4.05;2.35;;;17.00;99.90;;;;;;4857384;29;20042;-89
2021/09/12 02:37:01;;;;;;;3.75;2.10;;;17.00;99.90;;;;;;4858862;29;20017;-89
2021/09/12 02:39:27;;;;;;;6.97;2.22;;;17.00;99.90;;;;;;4858572;29;20068;-89
2021/09/12 02:41:53;;;;;;;4.50;2.45;;;17.00;99.90;;;;;;4857165;29;20117;-89
2021/09/12 02:44:18;;;;;;;4.47;3.03;;;16.90;99.90;;;;;;4856907;29;20034;-89
2021/09/12 02:46:44;;;;;;;6.28;2.72;;;16.90;99.90;;;;;;4855676;29;20478;-89
2021/09/12 02:49:10;;;;;;;3.22;2.42;;;16.90;99.90;;;;;;4855527;29;20030;-89
2021/09/12 02:51:35;;;;;;;3.80;2.20;;;16.90;99.90;;;;;;4856891;29;20062;-89
2021/09/12 02:54:01;;;;;;;5.22;2.85;;;16.90;99.90;;;;;;4857043;29;20102;-89
2021/09/12 02:56:27;;;;;;;3.90;2.28;;;16.80;99.90;;;;;;4857006;29;20029;-89
2021/09/12 02:58:52;;;;;;;6.20;2.60;;;16.80;99.90;;;;;;4859341;29;20503;-89
2021/09/12 03:01:18;;;;;;;3.50;2.20;;;16.80;99.90;;;;;;4859807;29;20534;-89
2021/09/12 03:03:44;;;;;;;3.75;2.50;;;16.80;99.90;;;;;;4858767;29;20077;-89
2021/09/12 03:06:09;;;;;;;5.10;2.30;;;16.80;99.90;;;;;;4860136;29;20120;-89
2021/09/12 03:08:35;;;;;;;5.32;2.40;;;16.70;99.90;;;;;;4858617;29;20026;-89
2021/09/12 03:11:01;;;;;;;4.00;2.10;;;16.70;99.90;;;;;;4858618;29;20467;-89
2021/09/12 03:13:26;;;;;;;6.68;2.45;;;16.70;99.90;;;;;;4858427;29;20056;-89
2021/09/12 03:15:52;;;;;;;5.03;2.28;;;16.70;99.90;;;;;;4858408;29;20488;-89
2021/09/12 03:18:18;;;;;;;4.75;2.45;;;16.70;99.90;;;;;;4858435;29;20406;-89
2021/09/12 03:20:44;;;;;;;5.15;2.45;;;16.70;99.90;;;;;;4858364;29;20029;-89
2021/09/12 03:23:10;;;;;;;4.70;2.58;;;16.70;99.90;;;;;;4859655;29;20101;-89
2021/09/12 03:25:36;;;;;;;3.75;2.88;;;16.70;99.90;;;;;;4859601;29;20037;-89
2021/09/12 03:28:02;;;;;;;3.83;2.00;;;16.70;99.90;;;;;;4859847;29;20021;-89
2021/09/12 03:30:27;;;;;;;5.95;2.85;;;16.70;99.90;;;;;;4845931;29;20044;-88
2021/09/12 03:32:53;;;;;;;5.18;2.65;;;16.70;99.90;;;;;;4858253;29;20025;-89
2021/09/12 03:35:19;;;;;;;4.97;2.35;;;16.70;99.90;;;;;;4859557;29;20029;-89
2021/09/12 03:37:45;;;;;;;5.32;2.33;;;16.70;99.90;;;;;;4859695;29;20319;-89
2021/09/12 03:40:11;;;;;;;4.65;2.63;;;16.60;99.90;;;;;;4858321;29;20030;-89
2021/09/12 03:42:37;;;;;;;4.43;2.63;;;16.60;99.90;;;;;;4859314;29;20158;-88
2021/09/12 03:45:04;;;;;;;4.85;2.65;;;16.60;99.90;;;;;;4859335;29;20120;-89
2021/09/12 03:47:29;;;;;;;3.97;2.67;;;16.60;99.90;;;;;;4859617;29;20026;-88
2021/09/12 03:49:55;;;;;;;5.38;2.47;;;16.60;99.90;;;;;;4859357;29;20041;-88
2021/09/12 03:52:21;;;;;;;5.05;2.80;;;16.70;99.90;;;;;;4859363;29;20057;-88
2021/09/12 03:54:46;;;;;;;4.93;2.40;;;16.60;99.90;;;;;;4859522;29;20531;-88
2021/09/12 03:57:12;;;;;;;5.57;2.40;;;16.60;99.90;;;;;;4859238;29;20029;-88
2021/09/12 03:59:38;;;;;;;4.35;2.28;;;16.70;99.90;;;;;;4858945;29;20033;-88
2021/09/12 04:02:04;;;;;;;5.32;2.50;;;16.60;99.90;;;;;;4859708;29;20033;-88
2021/09/12 04:04:29;;;;;;;5.95;2.40;;;16.60;99.90;;;;;;4857638;29;20071;-88
2021/09/12 04:06:55;;;;;;;6.45;3.38;;;16.60;99.90;;;;;;4859276;29;20402;-88
2021/09/12 04:09:21;;;;;;;4.45;2.42;;;16.60;99.90;;;;;;4858409;29;20033;-88
2021/09/12 04:11:46;;;;;;;4.82;2.42;;;16.50;99.90;;;;;;4857570;29;20433;-88
2021/09/12 04:14:12;;;;;;;3.95;2.60;;;16.50;99.90;;;;;;4859023;29;20458;-88
2021/09/12 04:16:38;;;;;;;4.38;2.38;;;16.50;99.90;;;;;;4857308;29;20037;-88
2021/09/12 04:19:04;;;;;;;6.40;2.53;;;16.50;99.90;;;;;;4858983;29;20041;-88
2021/09/12 04:21:29;;;;;;;4.80;2.50;;;16.60;99.90;;;;;;4858918;29;20479;-88
2021/09/12 04:23:55;;;;;;;5.25;2.78;;;16.60;99.90;;;;;;4858710;29;20030;-88
2021/09/12 04:26:21;;;;;;;3.80;2.63;;;16.60;99.90;;;;;;4858880;29;20463;-88
2021/09/12 04:28:46;;;;;;;9.00;2.55;;;16.60;99.90;;;;;;4857304;29;20037;-88
2021/09/12 04:31:12;;;;;;;6.90;2.80;;;16.60;99.90;;;;;;4859568;29;20037;-88
2021/09/12 04:33:38;;;;;;;5.50;2.40;;;16.60;99.90;;;;;;4858458;29;20049;-88
2021/09/12 04:36:04;;;;;;;4.80;2.45;;;16.60;99.90;;;;;;4858663;29;20025;-88
2021/09/12 04:38:30;;;;;;;4.32;3.05;;;16.60;99.90;;;;;;4857372;29;20543;-88
2021/09/12 04:40:55;;;;;;;5.53;2.33;;;16.50;99.90;;;;;;4858449;29;20025;-88
2021/09/12 04:43:21;;;;;;;3.97;2.40;;;16.50;99.90;;;;;;4858439;29;20476;-87
2021/09/12 04:45:47;;;;;;;5.50;2.72;;;16.50;99.90;;;;;;4858189;29;20029;-88
2021/09/12 04:48:13;;;;;;;2.92;2.22;;;16.60;99.90;;;;;;4858347;29;20045;-88
2021/09/12 04:50:39;;;;;;;5.68;2.45;;;16.50;99.90;;;;;;4858048;29;20053;-88
2021/09/12 04:53:04;;;;;;;4.65;2.40;;;16.50;99.90;;;;;;4857128;29;20022;-87
2021/09/12 04:55:30;;;;;;;7.78;2.40;;;16.60;99.90;;;;;;4858606;29;20445;-88
2021/09/12 04:57:56;;;;;;;3.70;2.28;;;16.50;99.90;;;;;;4858141;29;20062;-88
2021/09/12 05:00:21;;;;;;;5.80;2.65;;;16.60;99.90;;;;;;4858114;29;20112;-87
2021/09/12 05:02:48;;;;;;;5.95;2.67;;;16.50;99.90;;;;;;4856927;29;20025;-87
2021/09/12 05:05:14;;;;;;;4.15;2.45;;;16.50;99.90;;;;;;4858138;29;20034;-88
2021/09/12 05:07:39;;;;;;;5.70;2.97;;;16.50;99.90;;;;;;4857921;29;20025;-88
2021/09/12 05:10:06;;;;;;;4.97;2.78;;;16.50;99.90;;;;;;4858169;29;20534;-87
2021/09/12 05:12:31;;;;;;;5.30;2.63;;;16.40;99.90;;;;;;4857948;29;20182;-87
2021/09/12 05:14:57;;;;;;;6.50;2.92;;;16.40;99.90;;;;;;4857724;29;20104;-87
2021/09/12 05:17:23;;;;;;;3.67;2.80;;;16.50;99.90;;;;;;4858093;29;20028;-88
2021/09/12 05:19:49;;;;;;;6.45;3.25;;;16.40;99.90;;;;;;4857514;29;20483;-87
2021/09/12 05:22:15;;;;;;;5.00;2.97;;;16.40;99.90;;;;;;4857596;29;20419;-87
2021/09/12 05:24:41;;;;;;;7.88;2.90;;;16.40;99.90;;;;;;4857823;29;20025;-87
2021/09/12 05:27:06;;;;;;;7.50;2.90;;;16.30;99.90;;;;;;4856270;29;20036;-87
2021/09/12 05:29:32;;;;;;;3.45;2.80;;;16.30;99.90;;;;;;4857731;29;20506;-87
2021/09/12 05:31:58;;;;;;;5.88;2.58;;;16.30;99.90;;;;;;4857547;29;20034;-87
2021/09/12 05:34:24;;;;;;;6.50;2.85;;;16.30;99.90;;;;;;4857977;29;20030;-87
2021/09/12 05:36:49;;;;;;;7.43;3.20;;;16.30;99.90;;;;;;4858056;29;20036;-87
2021/09/12 05:39:15;;;;;;;4.95;2.55;;;16.30;99.90;;;;;;4857369;29;20029;-87
2021/09/12 05:41:41;;;;;;;5.35;2.58;;;16.30;99.90;;;;;;4858675;29;20057;-87
2021/09/12 05:44:07;;;;;;;5.38;2.55;;;16.30;99.90;;;;;;4857367;29;20025;-87
2021/09/12 05:46:35;;;;;;;6.28;2.85;;;16.30;99.90;;;;;;4857457;29;20025;-87
2021/09/12 05:49:01;;;;;;;5.25;3.10;;;16.20;99.90;;;;;;4857556;29;20161;-87
2021/09/12 05:51:27;;;;;;;6.00;3.10;;;16.20;99.90;;;;;;4857555;29;20076;-87
2021/09/12 05:53:52;;;;;;;6.10;3.03;;;16.20;99.90;;;;;;4857716;29;20053;-87
2021/09/12 05:56:18;;;;;;;5.00;2.63;;;16.20;99.90;;;;;;4857395;29;20530;-87
2021/09/12 05:58:44;;;;;;;4.18;3.08;;;16.20;99.90;;;;;;4857630;29;20112;-86
2021/09/12 06:01:11;;;;;;;6.22;3.30;;;16.10;99.90;;;;;;4857192;29;20028;-87
2021/09/12 06:03:37;;;;;;;7.45;3.10;;;16.20;99.90;;;;;;4856090;29;20048;-86
2021/09/12 06:06:03;;;;;;;7.70;2.97;;;16.20;99.90;;;;;;4857371;29;20017;-86
2021/09/12 06:08:28;;;;;;;4.47;3.20;;;16.10;99.90;;;;;;4858579;29;20037;-87
2021/09/12 06:10:54;;;;;;;4.57;2.80;;;16.10;99.90;;;;;;4857391;29;20045;-87
2021/09/12 06:13:20;;;;;;;5.93;2.90;;;16.20;99.90;;;;;;4857117;29;20045;-87
2021/09/12 06:15:46;;;;;;;4.45;2.80;;;16.20;99.90;;;;;;4855920;29;20116;-86
2021/09/12 06:18:11;;;;;;;5.10;2.85;;;16.20;99.90;;;;;;4857143;29;20021;-87
2021/09/12 06:20:37;;;;;;;4.90;2.80;;;16.30;99.90;;;;;;4857373;29;20326;-84
2021/09/12 06:23:03;;;;;;;5.70;2.95;;;16.30;99.90;;;;;;4857098;29;20391;-83
2021/09/12 06:25:29;;;;;;;9.32;3.33;;;16.30;99.90;;;;;;4857280;29;20431;-83
2021/09/12 06:27:54;;;;;;;5.25;3.10;;;16.30;99.90;;;;;;4857264;29;20026;-84
2021/09/12 06:30:20;;;;;;;5.55;3.15;;;16.40;99.90;;;;;;4856851;29;20398;-84
2021/09/12 06:32:47;;;;;;;5.50;2.90;;;16.40;99.90;;;;;;4859897;29;20094;-84
2021/09/12 06:35:14;;;;;;;4.50;2.65;;;16.40;99.90;;;;;;4860787;29;20427;-84
2021/09/12 06:37:40;;;;;;;7.93;3.10;;;16.50;99.90;;;;;;4860621;29;20035;-84
2021/09/12 06:40:07;;;;;;;7.07;3.15;;;16.50;99.90;;;;;;4861202;29;20108;-83
2021/09/12 06:42:33;;;;;;;7.60;3.60;;;16.50;99.90;;;;;;4860677;29;20078;-91
2021/09/12 06:44:59;;;;;;;5.35;3.63;;;16.60;99.90;;;;;;4862747;29;20037;-88
2021/09/12 06:47:25;;;;;;;5.32;3.40;;;16.70;99.90;;;;;;4862338;29;20025;-84
2021/09/12 06:49:50;;;;;;;6.68;3.33;;;16.70;99.90;;;;;;4860801;29;20045;-84
2021/09/12 06:52:16;;;;;;;4.95;3.10;;;16.90;99.90;;;;;;4859337;29;20064;-83
2021/09/12 06:54:42;;;;;;;6.40;3.22;;;16.90;99.90;;;;;;4860505;29;20061;-85
2021/09/12 06:57:08;;;;;;;5.13;3.15;;;17.00;99.90;;;;;;4859103;29;20054;-83
2021/09/12 06:59:34;;;;;;;5.28;3.38;;;17.10;99.90;;;;;;4858637;29;20018;-84
2021/09/12 07:01:59;;;;;;;4.90;2.92;;;17.20;99.90;;;;;;4858797;29;20440;-83
2021/09/12 07:04:25;;;;;;;5.38;3.03;;;17.30;99.90;;;;;;4858611;29;20068;-83
2021/09/12 07:06:51;;;;;;;5.80;2.75;;;17.40;99.90;;;;;;4859749;29;20021;-85
2021/09/12 07:09:16;;;;;;;5.80;2.80;;;17.50;99.90;;;;;;4858637;29;20062;-84
2021/09/12 07:11:42;;;;;;;7.32;2.75;;;17.60;99.90;;;;;;4858170;29;20090;-84
2021/09/12 07:14:08;;;;;;;4.88;2.80;;;17.60;99.90;;;;;;4859481;29;20040;-83
2021/09/12 07:16:33;;;;;;;4.63;2.97;;;17.70;99.90;;;;;;4859248;29;20025;-83
2021/09/12 07:18:59;;;;;;;6.68;2.90;;;17.70;99.90;;;;;;4859537;29;20018;-83
2021/09/12 07:21:25;;;;;;;5.78;2.80;;;17.90;99.90;;;;;;4859842;29;20044;-83
2021/09/12 07:23:51;;;;;;;8.35;3.00;;;17.90;99.90;;;;;;4859772;29;20036;-82
2021/09/12 07:26:17;;;;;;;5.70;3.22;;;18.00;99.90;;;;;;4859864;29;20096;-83
2021/09/12 07:28:43;;;;;;;6.45;2.97;;;18.00;99.90;;;;;;4861265;29;20056;-84
2021/09/12 07:31:09;;;;;;;7.63;2.60;;;18.00;99.90;;;;;;4858008;29;20044;-84
2021/09/12 07:33:34;;;;;;;3.38;2.40;;;18.00;99.90;;;;;;4859513;29;20038;-84
2021/09/12 07:36:00;;;;;;;6.18;3.00;;;18.20;99.90;;;;;;4858162;29;20520;-83
2021/09/12 07:38:26;;;;;;;6.38;2.60;;;18.30;99.90;;;;;;4859686;29;20097;-83
2021/09/12 07:40:52;;;;;;;3.40;2.50;;;18.40;99.90;;;;;;4859284;29;20041;-83
2021/09/12 07:43:17;;;;;;;5.10;2.70;;;18.40;99.90;;;;;;4858779;29;20110;-83
2021/09/12 07:45:43;;;;;;;7.50;3.00;;;18.40;99.90;;;;;;4859401;29;20060;-83
2021/09/12 07:48:09;;;;;;;5.45;2.67;;;18.50;99.90;;;;;;4859295;29;20026;-83
2021/09/12 07:50:35;;;;;;;5.63;2.95;;;18.60;99.90;;;;;;4859216;29;20041;-83
2021/09/12 07:53:01;;;;;;;6.38;2.42;;;18.70;99.90;;;;;;4859171;29;20090;-83
2021/09/12 07:55:27;;;;;;;5.65;2.60;;;18.80;99.90;;;;;;4859379;29;20431;-83
2021/09/12 07:57:52;;;;;;;5.50;2.45;;;18.80;99.90;;;;;;4859094;29;20028;-83
2021/09/12 08:00:18;;;;;;;4.25;2.85;;;18.90;99.90;;;;;;4859604;29;20029;-84
2021/09/12 08:02:44;;;;;;;8.68;2.80;;;19.00;99.90;;;;;;4859763;29;20061;-83
2021/09/12 08:05:10;;;;;;;5.65;2.67;;;19.20;99.90;;;;;;4848714;29;20333;-83
2021/09/12 08:07:36;;;;;;;5.10;2.22;;;19.20;99.90;;;;;;4859452;29;20364;-83
2021/09/12 08:10:03;;;;;;;3.70;2.30;;;19.30;99.90;;;;;;4859721;29;20028;-84
2021/09/12 08:12:28;;;;;;;5.20;2.28;;;19.50;99.90;;;;;;4851892;29;20063;-82
2021/09/12 08:14:54;;;;;;;3.50;2.47;;;19.50;99.90;;;;;;4839401;29;20026;-83
2021/09/12 08:17:20;;;;;;;4.90;2.20;;;19.70;99.90;;;;;;4850740;29;20029;-83
2021/09/12 08:19:45;;;;;;;4.35;2.33;;;19.80;99.90;;;;;;4837301;29;20026;-80
2021/09/12 08:22:11;;;;;;;3.25;2.20;;;19.90;99.90;;;;;;4850713;29;20026;-81
2021/09/12 08:24:37;;;;;;;9.88;2.50;;;20.00;99.90;;;;;;4844856;29;20026;-81
2021/09/12 08:27:04;;;;;;;2.97;2.08;;;20.10;99.90;;;;;;4844021;29;20029;-81
2021/09/12 08:29:31;;;;;;;6.03;2.40;;;20.20;99.90;;;;;;4850867;29;20022;-81
2021/09/12 08:31:57;;;;;;;2.97;1.98;;;20.30;99.90;;;;;;4853671;29;20036;-81
2021/09/12 08:34:24;;;;;;;4.63;1.85;;;20.40;99.90;;;;;;4854787;29;20105;-81
2021/09/12 08:36:50;;;;;;;4.18;1.73;;;20.40;99.90;;;;;;4854467;29;20030;-82
2021/09/12 08:39:16;;;;;;;5.88;1.85;;;20.60;99.90;;;;;;4840275;29;20109;-81
2021/09/12 08:41:42;;;;;;;4.45;1.90;;;20.60;99.90;;;;;;4854228;29;20117;-81
2021/09/12 08:44:08;;;;;;;4.13;1.92;;;20.80;99.90;;;;;;4840061;29;20014;-82
2021/09/12 08:46:35;;;;;;;3.67;1.67;;;20.90;99.90;;;;;;4840101;29;20058;-81
2021/09/12 08:49:01;;;;;;;5.28;2.05;;;21.00;99.90;;;;;;4840433;29;20113;-81
2021/09/12 08:51:29;;;;;;;2.28;1.75;;;21.10;99.90;;;;;;4840339;29;20209;-84
2021/09/12 08:53:55;;;;;;;5.10;1.80;;;21.20;99.90;;;;;;4843297;29;20037;-85
2021/09/12 08:56:21;;;;;;;3.15;1.60;;;21.30;99.90;;;;;;4840408;29;20026;-85
2021/09/12 08:58:46;;;;;;;6.70;2.00;;;21.40;99.90;;;;;;4840734;29;20021;-84
2021/09/12 09:01:12;;;;;;;3.15;2.00;;;21.50;99.90;;;;;;4857672;29;20030;-84
2021/09/12 09:03:42;;;;;;;2.95;1.98;;;21.60;99.90;;;;;;4849002;29;20018;-85
2021/09/12 09:06:18;;;;;;;3.20;1.85;;;21.60;99.90;;;;;;4839956;29;20529;-85
2021/09/12 09:08:55;;;;;;;4.13;1.80;;;21.70;99.90;;;;;;4840413;29;20165;-85
2021/09/12 09:11:35;;;;;;;4.50;2.10;;;21.80;99.90;;;;;;4840162;29;20423;-85
2021/09/12 09:14:20;;;;;;;4.10;1.70;;;21.80;99.90;;;;;;4839971;29;20495;-85
2021/09/12 09:16:48;;;;;;;3.80;2.00;;;21.80;99.90;;;;;;4839569;29;20490;-85
2021/09/12 09:19:15;;;;;;;3.05;1.60;;;21.90;99.90;;;;;;4840107;29;20034;-85
2021/09/12 09:21:44;;;;;;;3.60;1.75;;;22.00;99.90;;;;;;4840373;29;20026;-85
2021/09/12 09:24:17;;;;;;;4.22;1.60;;;22.10;99.90;;;;;;4840557;29;20037;-85
2021/09/12 09:26:48;;;;;;;9.90;2.00;;;22.20;99.90;;;;;;4858365;29;20048;-85
2021/09/12 09:29:22;;;;;;;4.85;1.90;;;22.30;99.90;;;;;;4858288;29;20021;-85
2021/09/12 09:32:03;;;;;;;4.07;1.85;;;22.40;99.90;;;;;;4858199;29;20041;-86
2021/09/12 09:34:28;;;;;;;2.80;1.80;;;22.50;99.90;;;;;;4842538;29;20037;-86
2021/09/12 09:37:10;;;;;;;2.08;1.60;;;22.60;99.90;;;;;;4851156;29;20117;-85
2021/09/12 09:39:41;;;;;;;3.25;1.70;;;22.60;99.90;;;;;;4830683;29;20033;-85
2021/09/12 09:42:26;;;;;;;2.75;1.83;;;22.70;99.90;;;;;;4840105;29;20562;-85
2021/09/12 09:45:00;;;;;;;4.10;1.70;;;22.90;99.90;;;;;;4840180;29;20033;-85
2021/09/12 09:47:29;;;;;;;3.28;1.83;;;23.00;99.90;;;;;;4839490;29;20026;-85
2021/09/12 09:50:15;;;;;;;3.50;1.30;;;23.00;99.90;;;;;;4840046;29;20065;-85
2021/09/12 09:52:46;;;;;;;4.95;1.67;;;23.20;99.90;;;;;;4839714;29;20189;-85
2021/09/12 09:55:14;;;;;;;4.10;1.70;;;23.30;99.90;;;;;;4839591;29;20030;-84
2021/09/12 09:57:42;;;;;;;5.72;1.88;;;23.40;99.90;;;;;;4839465;29;20030;-83
2021/09/12 10:00:08;;;;;;;2.47;1.60;;;23.50;99.90;;;;;;4853507;29;20026;-83
2021/09/12 10:02:34;;;;;;;3.25;1.40;;;23.60;99.90;;;;;;4838913;29;20030;-84
2021/09/12 10:05:03;;;;;;;4.40;1.75;;;23.70;99.70;;;;;;4839531;29;20118;-84
2021/09/12 10:07:29;;;;;;;2.13;1.27;;;23.70;99.10;;;;;;4841803;29;20094;-84
2021/09/12 10:09:55;;;;;;;4.32;1.50;;;23.70;99.10;;;;;;4842730;29;20068;-84
2021/09/12 10:12:22;;;;;;;2.90;1.73;;;23.80;99.00;;;;;;4849080;29;20053;-84
2021/09/12 10:14:52;;;;;;;6.22;1.35;;;23.90;98.30;;;;;;4861239;29;20017;-84
2021/09/12 10:17:25;;;;;;;2.92;1.70;;;24.00;97.50;;;;;;4861526;29;20480;-83
2021/09/12 10:20:14;;;;;;;5.47;1.40;;;24.00;97.70;;;;;;4861412;29;20029;-83
2021/09/12 10:23:01;;;;;;;2.80;1.38;;;24.00;97.70;;;;;;4861176;29;20370;-84
2021/09/12 10:25:52;;;;;;;2.47;1.42;;;24.10;97.40;;;;;;4861237;29;20036;-84
2021/09/12 10:28:35;;;;;;;6.60;1.52;;;24.20;97.20;;;;;;4861205;29;20028;-83
2021/09/12 10:31:27;;;;;;;5.32;1.85;;;24.20;96.90;;;;;;4859849;29;20038;-83
2021/09/12 10:34:05;;;;;;;3.22;1.27;;;24.30;96.50;;;;;;4860845;29;20484;-81
2021/09/12 10:36:31;;;;;;;2.53;1.20;;;24.40;96.20;;;;;;4860634;29;20030;-81
2021/09/12 10:39:17;;;;;;;4.80;1.38;;;24.50;96.30;;;;;;4862511;29;20491;-81
2021/09/12 10:42:09;;;;;;;4.65;1.30;;;24.50;96.00;;;;;;4861010;29;20502;-81
2021/09/12 10:44:35;;;;;;;3.05;1.65;;;24.60;94.80;;;;;;4855088;29;20032;-81
2021/09/12 10:47:09;;;;;;;2.40;1.35;;;24.60;95.50;;;;;;4860652;29;20104;-87
2021/09/12 10:49:35;;;;;;;3.65;1.50;;;24.60;95.40;;;;;;4860570;29;20033;-82
2021/09/12 10:52:00;;;;;;;4.25;1.42;;;24.70;94.90;;;;;;4860891;29;20034;-81
2021/09/12 10:54:26;;;;;;;2.72;1.35;;;24.80;95.20;;;;;;4861469;29;20030;-81
2021/09/12 10:57:07;;;;;;;2.70;1.23;;;24.90;94.70;;;;;;4861435;29;20021;-93
2021/09/12 10:59:34;;;;;;;3.22;1.20;;;24.90;94.30;;;;;;4860469;29;20028;-81
2021/09/12 11:02:00;;;;;;;3.30;1.17;;;25.00;94.10;;;;;;4860435;29;20030;-92
2021/09/12 11:04:31;;;;;;;3.33;1.45;;;25.10;94.20;;;;;;4861268;29;20041;-82
2021/09/12 11:07:03;;;;;;;3.15;1.50;;;25.20;94.00;;;;;;4860434;29;21278;-81
2021/09/12 11:09:29;;;;;;;5.80;3.63;;;25.20;93.50;;;;;;4860726;29;20042;-85
2021/09/12 11:11:58;;;;;;;3.05;1.20;;;25.40;92.60;;;;;;4859794;29;20052;-81
2021/09/12 11:14:25;;;;;;;2.83;1.30;;;25.30;92.80;;;;;;4860047;29;20444;-82
2021/09/12 11:16:52;;;;;;;2.30;1.00;;;25.20;92.90;;;;;;4860732;29;20479;-81
2021/09/12 11:19:19;;;;;;;2.35;1.27;;;25.30;93.00;;;;;;4859824;29;20022;-81
2021/09/12 11:21:45;;;;;;;7.20;1.13;;;25.30;92.60;;;;;;4861224;29;20005;-81
2021/09/12 11:24:22;;;;;;;2.78;1.40;;;25.30;91.90;;;;;;4864354;29;20049;-82
2021/09/12 11:26:53;;;;;;;2.88;1.40;;;25.50;92.00;;;;;;4869227;29;20029;-81
2021/09/12 11:29:26;;;;;;;1.98;1.10;;;25.60;91.20;;;;;;4860730;29;20084;-81
2021/09/12 11:32:00;;;;;;;2.45;1.00;;;25.80;91.00;;;;;;4877280;29;20371;-81
2021/09/12 11:34:26;;;;;;;1.70;1.00;;;25.80;91.40;;;;;;4878598;29;20021;-81
2021/09/12 11:36:59;;;;;;;2.17;1.02;;;25.80;91.00;;;;;;4861754;29;20032;-81
2021/09/12 11:39:27;;;;;;;3.15;1.20;;;25.80;90.60;;;;;;4878720;29;20108;-81
2021/09/12 11:41:58;;;;;;;2.40;1.30;;;25.80;90.80;;;;;;4876353;29;20502;-81
2021/09/12 11:44:35;;;;;;;1.75;0.93;;;25.80;90.80;;;;;;4867644;29;20021;-81
2021/09/12 11:47:03;;;;;;;1.83;1.17;;;26.00;88.90;;;;;;4878359;29;20442;-81
2021/09/12 11:49:29;;;;;;;2.15;1.00;;;26.10;90.40;;;;;;4878199;29;20380;-81
2021/09/12 11:51:55;;;;;;;1.60;0.80;;;26.20;89.60;;;;;;4878097;29;20062;-81
2021/09/12 11:54:22;;;;;;;3.33;1.08;;;26.30;90.00;;;;;;4878242;29;20064;-81
2021/09/12 11:56:56;;;;;;;1.73;1.00;;;26.30;88.30;;;;;;4877506;29;20025;-81
2021/09/12 11:59:23;;;;;;;3.38;1.20;;;26.30;87.30;;;;;;4877891;29;20032;-81
2021/09/12 12:01:50;;;;;;;3.28;1.02;;;26.30;86.40;;;;;;4878044;29;20025;-81
2021/09/12 12:04:17;;;;;;;2.25;1.27;;;26.30;85.40;;;;;;4877808;29;20029;-81
2021/09/12 12:06:47;;;;;;;2.75;0.85;;;26.30;84.90;;;;;;4877825;29;20035;-81
2021/09/12 12:09:14;;;;;;;3.38;1.20;;;26.30;85.30;;;;;;4877730;29;20525;-81
2021/09/12 12:11:44;;;;;;;2.75;0.93;;;26.50;85.80;;;;;;4877540;29;20042;-82
2021/09/12 12:14:25;;;;;;;4.68;1.00;;;26.60;84.20;;;;;;4864534;29;20483;-81
2021/09/12 12:16:52;;;;;;;4.25;0.98;;;26.60;83.10;;;;;;4877735;29;20033;-81
2021/09/12 12:19:19;;;;;;;1.55;1.00;;;26.60;82.20;;;;;;4877524;29;20081;-82
2021/09/12 12:21:50;;;;;;;3.05;1.40;;;26.80;79.70;;;;;;4877515;29;20395;-82
2021/09/12 12:24:21;;;;;;;3.55;1.10;;;26.90;78.80;;;;;;4877345;29;20072;-86
2021/09/12 12:26:54;;;;;;;1.60;1.10;;;27.00;78.50;;;;;;4877634;29;20036;-83
2021/09/12 12:29:29;;;;;;;2.15;0.90;;;27.00;78.20;;;;;;4877205;29;20483;-82
2021/09/12 12:31:57;;;;;;;1.88;0.90;;;26.80;79.10;;;;;;4877429;29;20123;-82
2021/09/12 12:34:51;;;;;;;1.83;1.15;;;26.80;79.40;;;;;;4877889;29;20082;-82
2021/09/12 12:37:22;;;;;;;2.35;0.90;;;26.90;80.10;;;;;;4877271;29;20028;-82
2021/09/12 12:39:59;;;;;;;2.35;1.00;;;27.00;79.80;;;;;;4877319;29;20036;-83
2021/09/12 12:42:36;;;;;;;1.88;0.95;;;27.20;78.60;;;;;;4877000;29;20025;-83
2021/09/12 12:45:25;;;;;;;1.50;0.93;;;27.60;77.40;;;;;;4874869;29;20044;-83
2021/09/12 12:48:13;;;;;;;3.22;0.90;;;27.80;77.40;;;;;;4869657;29;20033;-83
2021/09/12 12:50:41;;;;;;;2.88;0.85;;;28.10;72.50;;;;;;4847388;29;20052;-83